Bookmark and Share
Track history (hours):
 

F/V Argentario

Last reported at 2014-Apr-18 05:33 UTC. Time now 2014-Apr-18 18:11 UTC.
Position N 46°44' W 002°21'.

Length 22 m; draft 3.4 m.

Type: Fishing. MMSI: 228975000.

NotesDate/timePositionNaut miles runAvg speedWind from/ knotsBaromVisibWave heightAir tempDewpointWater temp
2014-Apr-18 05:33N 46°44' W 002°21'7 6.7
2014-Apr-18 04:34N 46°41' W 002°12'8 7.7
2014-Apr-18 03:33N 46°36' W 002°04'8 7.8
2014-Apr-18 02:33N 46°31' W 001°55'5 5.0
2014-Apr-18 01:33N 46°30' W 001°48'0 0.4
2014-Apr-18 00:33N 46°30' W 001°47'0 0.0
2014-Apr-17 23:33N 46°30' W 001°47'0 0.0
2014-Apr-17 22:33N 46°30' W 001°47'0 0.0
2014-Apr-17 21:33N 46°30' W 001°47'0 0.0
2014-Apr-17 20:33N 46°30' W 001°47'6 5.8
2014-Apr-17 19:33N 46°26' W 001°54'8 8.5
2014-Apr-17 18:33N 46°23' W 002°05'9 8.6
2014-Apr-17 17:33N 46°20' W 002°17'9 9.0
2014-Apr-17 16:31N 46°16' W 002°29'  
2014-Apr-13 00:33N 46°25' W 002°08'9 9.2
2014-Apr-12 23:33N 46°27' W 001°56'6 6.3
2014-Apr-12 22:33N 46°30' W 001°47'3 2.9
2014-Apr-12 21:33N 46°29' W 001°51'8 8.3
2014-Apr-12 20:33N 46°34' W 002°01'8 8.0
2014-Apr-12 19:33N 46°39' W 002°10'8 8.0
2014-Apr-12 18:33N 46°44' W 002°20'1 0.9
2014-Apr-12 17:33N 46°44' W 002°21'  

Dump ship's entire track history

sailing weather and tide predictions

F/V Argentario — FGPE — position and weather